sensor_id;sensor_type;location;lat;lon;timestamp;pressure;altitude;pressure_sealevel;temperature;humidity
5952;BME280;3001;42.622;23.194;2022-08-19T00:01:35;91270.78;;;21.92;81.13
5952;BME280;3001;42.622;23.194;2022-08-19T00:04:05;91272.28;;;21.86;81.39
5952;BME280;3001;42.622;23.194;2022-08-19T00:06:33;91271.88;;;21.84;81.87
5952;BME280;3001;42.622;23.194;2022-08-19T00:09:03;91286.59;;;21.78;82.59
5952;BME280;3001;42.622;23.194;2022-08-19T00:11:30;91279.84;;;21.88;81.48
5952;BME280;3001;42.622;23.194;2022-08-19T00:13:57;91273.78;;;21.87;81.10
5952;BME280;3001;42.622;23.194;2022-08-19T00:16:25;91292.03;;;22.06;80.32
5952;BME280;3001;42.622;23.194;2022-08-19T00:18:52;91295.81;;;22.05;80.58
5952;BME280;3001;42.622;23.194;2022-08-19T00:21:19;91291.22;;;21.95;80.80
5952;BME280;3001;42.622;23.194;2022-08-19T00:23:45;91294.91;;;21.84;80.59
5952;BME280;3001;42.622;23.194;2022-08-19T00:26:14;91298.91;;;21.64;80.86
5952;BME280;3001;42.622;23.194;2022-08-19T00:28:41;91293.28;;;21.65;81.01
5952;BME280;3001;42.622;23.194;2022-08-19T00:31:08;91288.38;;;21.67;81.12
5952;BME280;3001;42.622;23.194;2022-08-19T00:33:35;91282.34;;;21.70;81.08
5952;BME280;3001;42.622;23.194;2022-08-19T00:36:05;91281.22;;;21.71;80.90
5952;BME280;3001;42.622;23.194;2022-08-19T00:38:33;91283.91;;;21.75;81.42
5952;BME280;3001;42.622;23.194;2022-08-19T00:41:00;91283.53;;;21.73;81.85
5952;BME280;3001;42.622;23.194;2022-08-19T00:43:28;91280.63;;;21.92;81.13
5952;BME280;3001;42.622;23.194;2022-08-19T00:45:54;91278.34;;;21.90;81.20
5952;BME280;3001;42.622;23.194;2022-08-19T00:48:22;91276.81;;;21.86;81.51
5952;BME280;3001;42.622;23.194;2022-08-19T00:50:50;91284.34;;;21.84;80.88
5952;BME280;3001;42.622;23.194;2022-08-19T00:53:20;91277.13;;;21.77;81.06
5952;BME280;3001;42.622;23.194;2022-08-19T00:55:50;91282.47;;;21.84;80.49
5952;BME280;3001;42.622;23.194;2022-08-19T00:58:19;91274.47;;;21.74;80.29
5952;BME280;3001;42.622;23.194;2022-08-19T01:00:48;91272.13;;;21.65;81.09
5952;BME280;3001;42.622;23.194;2022-08-19T01:03:17;91275.00;;;21.50;81.65
5952;BME280;3001;42.622;23.194;2022-08-19T01:05:45;91272.78;;;21.55;82.32
5952;BME280;3001;42.622;23.194;2022-08-19T01:08:15;91271.25;;;21.51;82.13
5952;BME280;3001;42.622;23.194;2022-08-19T01:10:47;91259.88;;;21.47;82.28
5952;BME280;3001;42.622;23.194;2022-08-19T01:13:15;91272.38;;;21.50;82.09
5952;BME280;3001;42.622;23.194;2022-08-19T01:15:45;91272.38;;;21.50;83.52
5952;BME280;3001;42.622;23.194;2022-08-19T01:18:15;91266.00;;;21.58;82.42
5952;BME280;3001;42.622;23.194;2022-08-19T01:20:43;91271.66;;;21.56;83.02
5952;BME280;3001;42.622;23.194;2022-08-19T01:23:13;91262.28;;;21.62;83.17
5952;BME280;3001;42.622;23.194;2022-08-19T01:25:42;91256.31;;;21.72;82.01
5952;BME280;3001;42.622;23.194;2022-08-19T01:28:15;91253.31;;;21.74;82.12
5952;BME280;3001;42.622;23.194;2022-08-19T01:30:43;91250.97;;;21.65;82.56
5952;BME280;3001;42.622;23.194;2022-08-19T01:33:11;91259.34;;;21.71;81.48
5952;BME280;3001;42.622;23.194;2022-08-19T01:35:38;91257.09;;;21.80;81.31
5952;BME280;3001;42.622;23.194;2022-08-19T01:38:08;91246.94;;;21.85;81.26
5952;BME280;3001;42.622;23.194;2022-08-19T01:40:39;91255.56;;;21.72;82.11
5952;BME280;3001;42.622;23.194;2022-08-19T01:43:07;91250.28;;;21.72;82.40
5952;BME280;3001;42.622;23.194;2022-08-19T01:45:35;91262.09;;;21.92;81.69
5952;BME280;3001;42.622;23.194;2022-08-19T01:48:03;91246.44;;;21.62;81.89
5952;BME280;3001;42.622;23.194;2022-08-19T01:50:32;91263.53;;;21.75;81.82
5952;BME280;3001;42.622;23.194;2022-08-19T01:53:00;91260.84;;;21.72;82.96
5952;BME280;3001;42.622;23.194;2022-08-19T01:55:27;91264.22;;;21.69;83.35
5952;BME280;3001;42.622;23.194;2022-08-19T01:57:58;91260.72;;;21.58;82.32
5952;BME280;3001;42.622;23.194;2022-08-19T02:00:28;91267.88;;;21.54;82.39
5952;BME280;3001;42.622;23.194;2022-08-19T02:02:56;91264.53;;;21.60;82.18
5952;BME280;3001;42.622;23.194;2022-08-19T02:05:23;91272.34;;;21.46;82.44
5952;BME280;3001;42.622;23.194;2022-08-19T02:07:50;91268.47;;;21.37;82.71
5952;BME280;3001;42.622;23.194;2022-08-19T02:10:20;91260.13;;;21.31;82.46
5952;BME280;3001;42.622;23.194;2022-08-19T02:12:48;91252.50;;;21.23;82.99
5952;BME280;3001;42.622;23.194;2022-08-19T02:15:17;91268.78;;;21.25;82.94
5952;BME280;3001;42.622;23.194;2022-08-19T02:17:45;91261.63;;;21.29;83.17
5952;BME280;3001;42.622;23.194;2022-08-19T02:20:13;91259.84;;;21.43;83.15
5952;BME280;3001;42.622;23.194;2022-08-19T02:22:40;91259.59;;;21.59;81.87
5952;BME280;3001;42.622;23.194;2022-08-19T02:25:09;91269.09;;;21.63;81.44
5952;BME280;3001;42.622;23.194;2022-08-19T02:27:35;91262.22;;;21.59;81.58
5952;BME280;3001;42.622;23.194;2022-08-19T02:30:04;91265.53;;;21.45;81.25
5952;BME280;3001;42.622;23.194;2022-08-19T02:32:32;91261.69;;;21.36;82.30
5952;BME280;3001;42.622;23.194;2022-08-19T02:34:59;91261.59;;;21.25;82.57
5952;BME280;3001;42.622;23.194;2022-08-19T02:37:26;91258.69;;;21.37;81.97
5952;BME280;3001;42.622;23.194;2022-08-19T02:40:11;91264.31;;;21.36;82.29
5952;BME280;3001;42.622;23.194;2022-08-19T02:42:38;91249.19;;;21.33;82.89
5952;BME280;3001;42.622;23.194;2022-08-19T02:45:05;91250.03;;;21.40;82.20
5952;BME280;3001;42.622;23.194;2022-08-19T02:47:34;91247.56;;;21.18;83.57
5952;BME280;3001;42.622;23.194;2022-08-19T02:50:02;91250.25;;;21.21;82.85
5952;BME280;3001;42.622;23.194;2022-08-19T02:52:30;91249.91;;;21.26;83.06
5952;BME280;3001;42.622;23.194;2022-08-19T02:54:57;91249.06;;;21.19;83.28
5952;BME280;3001;42.622;23.194;2022-08-19T02:57:24;91250.25;;;21.21;83.09
5952;BME280;3001;42.622;23.194;2022-08-19T02:59:52;91247.22;;;21.19;83.35
5952;BME280;3001;42.622;23.194;2022-08-19T03:02:19;91245.00;;;21.28;83.94
5952;BME280;3001;42.622;23.194;2022-08-19T03:04:48;91252.00;;;21.54;82.32
5952;BME280;3001;42.622;23.194;2022-08-19T03:07:16;91248.13;;;21.41;82.58
5952;BME280;3001;42.622;23.194;2022-08-19T03:09:44;91244.75;;;21.44;82.70
5952;BME280;3001;42.622;23.194;2022-08-19T03:12:10;91242.91;;;21.48;82.80
5952;BME280;3001;42.622;23.194;2022-08-19T03:14:37;91244.72;;;21.40;81.48
5952;BME280;3001;42.622;23.194;2022-08-19T03:17:04;91247.38;;;21.40;81.57
5952;BME280;3001;42.622;23.194;2022-08-19T03:19:31;91246.28;;;21.48;80.66
5952;BME280;3001;42.622;23.194;2022-08-19T03:21:59;91236.81;;;21.40;82.62
5952;BME280;3001;42.622;23.194;2022-08-19T03:24:27;91250.75;;;21.41;81.59
5952;BME280;3001;42.622;23.194;2022-08-19T03:26:56;91259.03;;;21.36;82.08
5952;BME280;3001;42.622;23.194;2022-08-19T03:29:24;91252.59;;;21.33;81.26
5952;BME280;3001;42.622;23.194;2022-08-19T03:31:51;91244.25;;;21.28;82.49
5952;BME280;3001;42.622;23.194;2022-08-19T03:34:20;91262.47;;;21.40;81.60
5952;BME280;3001;42.622;23.194;2022-08-19T03:36:48;91247.28;;;21.30;80.67
5952;BME280;3001;42.622;23.194;2022-08-19T03:39:16;91251.50;;;21.38;80.25
5952;BME280;3001;42.622;23.194;2022-08-19T03:41:44;91274.28;;;21.53;78.85
5952;BME280;3001;42.622;23.194;2022-08-19T03:44:12;91282.59;;;21.55;78.33
5952;BME280;3001;42.622;23.194;2022-08-19T03:46:39;91277.69;;;21.57;78.44
5952;BME280;3001;42.622;23.194;2022-08-19T03:49:05;91286.72;;;21.49;79.22
5952;BME280;3001;42.622;23.194;2022-08-19T03:51:34;91286.72;;;21.52;77.85
5952;BME280;3001;42.622;23.194;2022-08-19T03:54:04;91289.41;;;21.56;78.67
5952;BME280;3001;42.622;23.194;2022-08-19T03:56:33;91290.50;;;21.51;80.27
5952;BME280;3001;42.622;23.194;2022-08-19T03:59:00;91286.25;;;21.40;81.80
5952;BME280;3001;42.622;23.194;2022-08-19T04:01:28;91290.41;;;21.37;81.79
5952;BME280;3001;42.622;23.194;2022-08-19T04:03:57;91294.53;;;21.35;82.03
5952;BME280;3001;42.622;23.194;2022-08-19T04:06:27;91290.78;;;21.39;81.75
5952;BME280;3001;42.622;23.194;2022-08-19T04:08:56;91286.59;;;21.35;82.76
5952;BME280;3001;42.622;23.194;2022-08-19T04:11:25;91292.22;;;21.30;83.13
5952;BME280;3001;42.622;23.194;2022-08-19T04:13:54;91290.75;;;21.36;83.61
5952;BME280;3001;42.622;23.194;2022-08-19T04:16:23;91293.06;;;21.41;83.26
5952;BME280;3001;42.622;23.194;2022-08-19T04:18:54;91300.72;;;21.53;83.45
5952;BME280;3001;42.622;23.194;2022-08-19T04:21:24;91296.81;;;21.40;84.12
5952;BME280;3001;42.622;23.194;2022-08-19T04:23:52;91305.22;;;21.49;84.46
5952;BME280;3001;42.622;23.194;2022-08-19T04:26:22;91305.53;;;21.44;84.88
5952;BME280;3001;42.622;23.194;2022-08-19T04:28:49;91302.16;;;21.43;84.48
5952;BME280;3001;42.622;23.194;2022-08-19T04:31:20;91306.66;;;21.43;84.64
5952;BME280;3001;42.622;23.194;2022-08-19T04:33:47;91302.19;;;21.47;84.39
5952;BME280;3001;42.622;23.194;2022-08-19T04:36:20;91303.31;;;21.46;84.10
5952;BME280;3001;42.622;23.194;2022-08-19T04:38:48;91295.44;;;21.53;84.69
5952;BME280;3001;42.622;23.194;2022-08-19T04:41:15;91300.28;;;21.47;85.30
5952;BME280;3001;42.622;23.194;2022-08-19T04:44:00;91302.56;;;21.49;85.62
5952;BME280;3001;42.622;23.194;2022-08-19T04:46:29;91294.56;;;21.42;86.27
5952;BME280;3001;42.622;23.194;2022-08-19T04:48:57;91297.25;;;21.45;86.39
5952;BME280;3001;42.622;23.194;2022-08-19T04:51:24;91290.50;;;21.51;86.75
5952;BME280;3001;42.622;23.194;2022-08-19T04:53:51;91301.50;;;21.57;86.86
5952;BME280;3001;42.622;23.194;2022-08-19T04:56:19;91299.53;;;21.47;87.77
5952;BME280;3001;42.622;23.194;2022-08-19T04:58:48;91296.91;;;21.47;88.45
5952;BME280;3001;42.622;23.194;2022-08-19T05:01:18;91304.88;;;21.54;88.54
5952;BME280;3001;42.622;23.194;2022-08-19T05:03:47;91298.47;;;21.55;88.74
5952;BME280;3001;42.622;23.194;2022-08-19T05:06:16;91296.94;;;21.54;89.64
5952;BME280;3001;42.622;23.194;2022-08-19T05:08:45;91308.69;;;21.60;89.77
5952;BME280;3001;42.622;23.194;2022-08-19T05:11:14;91297.56;;;21.84;88.93
5952;BME280;3001;42.622;23.194;2022-08-19T05:13:41;91303.66;;;21.88;89.20
5952;BME280;3001;42.622;23.194;2022-08-19T05:16:09;91299.56;;;22.01;88.88
5952;BME280;3001;42.622;23.194;2022-08-19T05:18:36;91308.09;;;21.77;90.48
5952;BME280;3001;42.622;23.194;2022-08-19T05:21:22;91304.63;;;21.66;91.13
5952;BME280;3001;42.622;23.194;2022-08-19T05:24:06;91284.50;;;21.58;91.26
5952;BME280;3001;42.622;23.194;2022-08-19T05:26:34;91304.78;;;21.87;90.50
5952;BME280;3001;42.622;23.194;2022-08-19T05:29:01;91307.06;;;21.92;90.95
5952;BME280;3001;42.622;23.194;2022-08-19T05:31:28;91312.78;;;21.97;91.02
5952;BME280;3001;42.622;23.194;2022-08-19T05:33:55;91311.66;;;22.02;91.25
5952;BME280;3001;42.622;23.194;2022-08-19T05:36:25;91312.03;;;22.00;91.40
5952;BME280;3001;42.622;23.194;2022-08-19T05:38:52;91311.28;;;22.00;91.70
5952;BME280;3001;42.622;23.194;2022-08-19T05:41:20;91312.47;;;22.06;91.54
5952;BME280;3001;42.622;23.194;2022-08-19T05:43:48;91312.06;;;22.04;92.61
5952;BME280;3001;42.622;23.194;2022-08-19T05:46:17;91292.41;;;22.05;92.90
5952;BME280;3001;42.622;23.194;2022-08-19T05:48:45;91300.34;;;22.05;93.32
5952;BME280;3001;42.622;23.194;2022-08-19T05:51:12;91303.03;;;22.15;93.93
5952;BME280;3001;42.622;23.194;2022-08-19T05:53:40;91288.31;;;22.18;93.75
5952;BME280;3001;42.622;23.194;2022-08-19T05:56:09;91305.88;;;22.40;93.83
5952;BME280;3001;42.622;23.194;2022-08-19T05:58:36;91302.47;;;22.39;94.12
5952;BME280;3001;42.622;23.194;2022-08-19T06:01:08;91303.16;;;22.36;93.62
5952;BME280;3001;42.622;23.194;2022-08-19T06:03:35;91305.06;;;22.36;94.18
5952;BME280;3001;42.622;23.194;2022-08-19T06:06:02;91303.22;;;22.40;94.90
5952;BME280;3001;42.622;23.194;2022-08-19T06:08:29;91315.38;;;22.51;92.96
5952;BME280;3001;42.622;23.194;2022-08-19T06:10:57;91313.91;;;22.57;91.59
5952;BME280;3001;42.622;23.194;2022-08-19T06:13:24;91312.00;;;22.58;88.38
5952;BME280;3001;42.622;23.194;2022-08-19T06:15:51;91313.53;;;22.66;86.04
5952;BME280;3001;42.622;23.194;2022-08-19T06:18:18;91314.31;;;22.66;90.45
5952;BME280;3001;42.622;23.194;2022-08-19T06:20:44;91310.19;;;22.76;90.55
5952;BME280;3001;42.622;23.194;2022-08-19T06:23:12;91311.75;;;22.91;88.89
5952;BME280;3001;42.622;23.194;2022-08-19T06:25:39;91316.31;;;23.00;88.31
5952;BME280;3001;42.622;23.194;2022-08-19T06:28:07;91316.00;;;23.12;90.46
5952;BME280;3001;42.622;23.194;2022-08-19T06:30:35;91315.63;;;23.17;89.63
5952;BME280;3001;42.622;23.194;2022-08-19T06:33:02;91317.91;;;23.19;87.42
5952;BME280;3001;42.622;23.194;2022-08-19T06:35:29;91311.84;;;23.22;91.17
5952;BME280;3001;42.622;23.194;2022-08-19T06:37:55;91306.94;;;23.48;89.06
5952;BME280;3001;42.622;23.194;2022-08-19T06:40:22;91295.59;;;23.30;89.20
5952;BME280;3001;42.622;23.194;2022-08-19T06:42:49;91312.28;;;23.66;87.40
5952;BME280;3001;42.622;23.194;2022-08-19T06:45:17;91307.75;;;23.63;86.77
5952;BME280;3001;42.622;23.194;2022-08-19T06:47:45;91314.94;;;23.69;85.26
5952;BME280;3001;42.622;23.194;2022-08-19T06:50:13;91312.31;;;23.83;84.19
5952;BME280;3001;42.622;23.194;2022-08-19T06:52:40;91317.97;;;23.99;85.12
5952;BME280;3001;42.622;23.194;2022-08-19T06:55:07;91317.22;;;24.13;84.21
5952;BME280;3001;42.622;23.194;2022-08-19T06:57:34;91319.09;;;24.16;83.80
5952;BME280;3001;42.622;23.194;2022-08-19T07:00:02;91319.47;;;24.21;83.40
5952;BME280;3001;42.622;23.194;2022-08-19T07:02:31;91323.63;;;24.33;81.89
5952;BME280;3001;42.622;23.194;2022-08-19T07:04:57;91323.59;;;24.47;80.05
5952;BME280;3001;42.622;23.194;2022-08-19T07:07:26;91330.03;;;24.63;75.79
5952;BME280;3001;42.622;23.194;2022-08-19T07:09:53;91343.25;;;24.87;74.84
5952;BME280;3001;42.622;23.194;2022-08-19T07:12:20;91334.06;;;25.02;75.26
5952;BME280;3001;42.622;23.194;2022-08-19T07:14:46;91334.03;;;25.13;73.63
5952;BME280;3001;42.622;23.194;2022-08-19T07:17:14;91334.38;;;25.15;73.45
5952;BME280;3001;42.622;23.194;2022-08-19T07:19:43;91340.81;;;25.24;73.96
5952;BME280;3001;42.622;23.194;2022-08-19T07:22:10;91344.88;;;25.43;72.49
5952;BME280;3001;42.622;23.194;2022-08-19T07:24:37;91335.34;;;25.49;70.25
5952;BME280;3001;42.622;23.194;2022-08-19T07:27:05;91343.63;;;25.61;70.01
5952;BME280;3001;42.622;23.194;2022-08-19T07:29:34;91346.97;;;25.76;68.11
5952;BME280;3001;42.622;23.194;2022-08-19T07:32:03;91340.13;;;25.75;66.56
5952;BME280;3001;42.622;23.194;2022-08-19T07:34:31;91346.16;;;25.86;66.27
5952;BME280;3001;42.622;23.194;2022-08-19T07:37:01;91341.00;;;26.12;66.03
5952;BME280;3001;42.622;23.194;2022-08-19T07:39:31;91340.13;;;26.22;67.96
5952;BME280;3001;42.622;23.194;2022-08-19T07:42:00;91337.34;;;26.40;68.18
5952;BME280;3001;42.622;23.194;2022-08-19T07:44:27;91348.59;;;26.58;65.46
5952;BME280;3001;42.622;23.194;2022-08-19T07:46:56;91348.03;;;26.76;63.68
5952;BME280;3001;42.622;23.194;2022-08-19T07:49:23;91328.84;;;26.88;62.56
5952;BME280;3001;42.622;23.194;2022-08-19T07:51:52;91347.78;;;26.97;64.56
5952;BME280;3001;42.622;23.194;2022-08-19T07:54:25;91347.13;;;26.90;64.90
5952;BME280;3001;42.622;23.194;2022-08-19T07:56:52;91343.13;;;27.05;63.76
5952;BME280;3001;42.622;23.194;2022-08-19T07:59:21;91344.94;;;27.15;64.76
5952;BME280;3001;42.622;23.194;2022-08-19T08:01:49;91345.16;;;27.27;62.07
5952;BME280;3001;42.622;23.194;2022-08-19T08:04:17;91345.66;;;27.49;60.45
5952;BME280;3001;42.622;23.194;2022-08-19T08:07:03;91334.91;;;27.52;61.03
5952;BME280;3001;42.622;23.194;2022-08-19T08:09:49;91347.63;;;27.71;60.95
5952;BME280;3001;42.622;23.194;2022-08-19T08:12:19;91343.50;;;27.93;61.36
5952;BME280;3001;42.622;23.194;2022-08-19T08:14:50;91345.72;;;27.98;61.05
5952;BME280;3001;42.622;23.194;2022-08-19T08:17:23;91338.41;;;28.25;59.11
5952;BME280;3001;42.622;23.194;2022-08-19T08:19:50;91335.59;;;28.36;60.18
5952;BME280;3001;42.622;23.194;2022-08-19T08:22:19;91346.41;;;28.52;57.04
5952;BME280;3001;42.622;23.194;2022-08-19T08:25:08;91342.78;;;28.39;55.82
5952;BME280;3001;42.622;23.194;2022-08-19T08:27:35;91335.91;;;28.60;58.95
5952;BME280;3001;42.622;23.194;2022-08-19T08:30:05;91343.00;;;28.70;55.64
5952;BME280;3001;42.622;23.194;2022-08-19T08:32:35;91338.03;;;28.92;53.29
5952;BME280;3001;42.622;23.194;2022-08-19T08:35:06;91333.66;;;29.01;55.42
5952;BME280;3001;42.622;23.194;2022-08-19T08:37:33;91343.34;;;28.95;52.31
5952;BME280;3001;42.622;23.194;2022-08-19T08:40:03;91337.97;;;29.15;52.64
5952;BME280;3001;42.622;23.194;2022-08-19T08:42:36;91340.53;;;29.22;52.55
5952;BME280;3001;42.622;23.194;2022-08-19T08:45:11;91340.97;;;29.36;49.94
5952;BME280;3001;42.622;23.194;2022-08-19T08:47:41;91333.38;;;29.54;50.54
5952;BME280;3001;42.622;23.194;2022-08-19T08:50:13;91345.66;;;29.52;48.32
5952;BME280;3001;42.622;23.194;2022-08-19T08:52:45;91341.16;;;29.65;52.03
5952;BME280;3001;42.622;23.194;2022-08-19T08:55:15;91348.31;;;29.87;46.99
5952;BME280;3001;42.622;23.194;2022-08-19T08:57:55;91341.53;;;29.99;49.85
5952;BME280;3001;42.622;23.194;2022-08-19T09:00:27;91339.81;;;30.08;46.64
5952;BME280;3001;42.622;23.194;2022-08-19T09:02:56;91339.81;;;30.24;47.80
5952;BME280;3001;42.622;23.194;2022-08-19T09:08:12;91336.88;;;30.50;47.87
5952;BME280;3001;42.622;23.194;2022-08-19T09:10:44;91329.50;;;30.70;47.41
5952;BME280;3001;42.622;23.194;2022-08-19T09:13:20;91336.38;;;30.71;44.96
5952;BME280;3001;42.622;23.194;2022-08-19T09:15:54;91333.94;;;30.77;46.34
5952;BME280;3001;42.622;23.194;2022-08-19T09:18:22;91332.81;;;30.90;47.81
5952;BME280;3001;42.622;23.194;2022-08-19T09:20:49;91339.47;;;31.14;46.28
5952;BME280;3001;42.622;23.194;2022-08-19T09:23:16;91332.50;;;31.17;46.00
5952;BME280;3001;42.622;23.194;2022-08-19T09:25:42;91337.69;;;31.36;46.40
5952;BME280;3001;42.622;23.194;2022-08-19T09:28:09;91341.34;;;31.42;44.85
5952;BME280;3001;42.622;23.194;2022-08-19T09:30:40;91330.53;;;31.58;41.15
5952;BME280;3001;42.622;23.194;2022-08-19T09:33:07;91326.50;;;31.66;44.52
5952;BME280;3001;42.622;23.194;2022-08-19T09:35:34;91325.97;;;31.71;43.85
5952;BME280;3001;42.622;23.194;2022-08-19T09:38:02;91324.56;;;31.92;46.00
5952;BME280;3001;42.622;23.194;2022-08-19T09:40:30;91323.59;;;31.98;44.31
5952;BME280;3001;42.622;23.194;2022-08-19T09:42:56;91327.78;;;32.12;42.65
5952;BME280;3001;42.622;23.194;2022-08-19T09:45:28;91326.28;;;32.23;43.46
5952;BME280;3001;42.622;23.194;2022-08-19T09:47:56;91322.38;;;32.37;43.33
5952;BME280;3001;42.622;23.194;2022-08-19T09:50:24;91327.44;;;32.47;43.21
5952;BME280;3001;42.622;23.194;2022-08-19T09:52:51;91327.22;;;32.54;41.77
5952;BME280;3001;42.622;23.194;2022-08-19T09:55:22;91321.47;;;32.64;41.82
5952;BME280;3001;42.622;23.194;2022-08-19T09:57:49;91318.31;;;32.91;42.53
5952;BME280;3001;42.622;23.194;2022-08-19T10:00:15;91318.78;;;32.98;42.80
5952;BME280;3001;42.622;23.194;2022-08-19T10:02:42;91315.25;;;33.01;39.16
5952;BME280;3001;42.622;23.194;2022-08-19T10:05:10;91312.59;;;33.10;39.47
5952;BME280;3001;42.622;23.194;2022-08-19T10:07:55;91307.72;;;32.96;38.88
5952;BME280;3001;42.622;23.194;2022-08-19T10:10:22;91309.09;;;33.01;40.54
5952;BME280;3001;42.622;23.194;2022-08-19T10:12:49;91311.06;;;33.22;37.59
5952;BME280;3001;42.622;23.194;2022-08-19T10:15:16;91305.13;;;33.27;37.82
5952;BME280;3001;42.622;23.194;2022-08-19T10:17:46;91300.69;;;33.33;38.81
5952;BME280;3001;42.622;23.194;2022-08-19T10:20:14;91303.59;;;33.47;41.02
5952;BME280;3001;42.622;23.194;2022-08-19T10:22:41;91309.69;;;33.60;38.94
5952;BME280;3001;42.622;23.194;2022-08-19T10:25:09;91308.72;;;33.76;38.14
5952;BME280;3001;42.622;23.194;2022-08-19T10:27:36;91311.59;;;33.81;36.83
5952;BME280;3001;42.622;23.194;2022-08-19T10:30:04;91304.56;;;33.84;37.14
5952;BME280;3001;42.622;23.194;2022-08-19T10:32:31;91304.31;;;33.91;35.58
5952;BME280;3001;42.622;23.194;2022-08-19T10:34:59;91299.97;;;33.93;34.26
5952;BME280;3001;42.622;23.194;2022-08-19T10:37:27;91293.19;;;33.89;34.59
5952;BME280;3001;42.622;23.194;2022-08-19T10:39:56;91300.16;;;34.08;32.24
5952;BME280;3001;42.622;23.194;2022-08-19T10:42:22;91307.44;;;34.20;32.75
5952;BME280;3001;42.622;23.194;2022-08-19T10:44:49;91304.44;;;34.27;34.10
5952;BME280;3001;42.622;23.194;2022-08-19T10:47:16;91304.31;;;34.30;33.81
5952;BME280;3001;42.622;23.194;2022-08-19T10:49:43;91310.59;;;34.36;33.99
5952;BME280;3001;42.622;23.194;2022-08-19T10:52:40;91311.13;;;34.52;30.09
5952;BME280;3001;42.622;23.194;2022-08-19T10:55:08;91310.03;;;34.50;32.76
5952;BME280;3001;42.622;23.194;2022-08-19T10:57:53;91306.16;;;34.51;32.63
5952;BME280;3001;42.622;23.194;2022-08-19T11:00:20;91305.72;;;34.61;31.70
5952;BME280;3001;42.622;23.194;2022-08-19T11:02:48;91304.41;;;34.75;31.62
5952;BME280;3001;42.622;23.194;2022-08-19T11:05:15;91306.00;;;34.63;29.49
5952;BME280;3001;42.622;23.194;2022-08-19T11:07:44;91305.75;;;34.70;30.60
5952;BME280;3001;42.622;23.194;2022-08-19T11:10:13;91304.88;;;34.73;32.43
5952;BME280;3001;42.622;23.194;2022-08-19T11:12:44;91290.91;;;34.75;29.50
5952;BME280;3001;42.622;23.194;2022-08-19T11:15:12;91288.81;;;34.79;31.00
5952;BME280;3001;42.622;23.194;2022-08-19T11:17:39;91285.53;;;34.84;31.53
5952;BME280;3001;42.622;23.194;2022-08-19T11:20:10;91294.66;;;34.86;31.46
5952;BME280;3001;42.622;23.194;2022-08-19T11:22:37;91293.31;;;35.00;32.62
5952;BME280;3001;42.622;23.194;2022-08-19T11:25:07;91290.63;;;35.09;31.64
5952;BME280;3001;42.622;23.194;2022-08-19T11:27:38;91285.34;;;35.05;31.42
5952;BME280;3001;42.622;23.194;2022-08-19T11:30:09;91285.81;;;35.13;32.07
5952;BME280;3001;42.622;23.194;2022-08-19T11:32:36;91279.34;;;35.28;33.63
5952;BME280;3001;42.622;23.194;2022-08-19T11:35:03;91284.31;;;35.30;31.63
5952;BME280;3001;42.622;23.194;2022-08-19T11:37:30;91292.72;;;35.23;30.67
5952;BME280;3001;42.622;23.194;2022-08-19T11:40:02;91293.34;;;35.27;28.57
5952;BME280;3001;42.622;23.194;2022-08-19T11:42:31;91278.78;;;35.24;30.92
5952;BME280;3001;42.622;23.194;2022-08-19T11:45:15;91287.16;;;35.26;31.99
5952;BME280;3001;42.622;23.194;2022-08-19T11:47:42;91285.53;;;35.29;29.99
5952;BME280;3001;42.622;23.194;2022-08-19T11:50:09;91288.81;;;35.33;32.02
5952;BME280;3001;42.622;23.194;2022-08-19T11:52:36;91276.03;;;35.33;28.75
5952;BME280;3001;42.622;23.194;2022-08-19T11:55:03;91269.59;;;35.22;30.15
5952;BME280;3001;42.622;23.194;2022-08-19T11:57:32;91279.34;;;35.37;31.33
5952;BME280;3001;42.622;23.194;2022-08-19T11:59:58;91274.97;;;35.49;34.57
5952;BME280;3001;42.622;23.194;2022-08-19T12:02:25;91258.00;;;35.48;33.71
5952;BME280;3001;42.622;23.194;2022-08-19T12:04:52;91273.31;;;35.51;34.05
5952;BME280;3001;42.622;23.194;2022-08-19T12:07:19;91259.63;;;35.55;34.07
5952;BME280;3001;42.622;23.194;2022-08-19T12:09:45;91261.94;;;35.38;34.36
5952;BME280;3001;42.622;23.194;2022-08-19T12:12:12;91264.06;;;35.34;34.64
5952;BME280;3001;42.622;23.194;2022-08-19T12:14:40;91253.94;;;35.53;34.40
5952;BME280;3001;42.622;23.194;2022-08-19T12:17:07;91251.06;;;35.65;32.27
5952;BME280;3001;42.622;23.194;2022-08-19T12:19:35;91248.72;;;35.40;29.25
5952;BME280;3001;42.622;23.194;2022-08-19T12:22:02;91247.84;;;35.34;31.53
5952;BME280;3001;42.622;23.194;2022-08-19T12:24:31;91252.34;;;35.28;31.28
5952;BME280;3001;42.622;23.194;2022-08-19T12:26:58;91239.41;;;35.32;30.55
5952;BME280;3001;42.622;23.194;2022-08-19T12:29:27;91239.41;;;35.41;30.79
5952;BME280;3001;42.622;23.194;2022-08-19T12:31:57;91232.91;;;35.57;33.45
5952;BME280;3001;42.622;23.194;2022-08-19T12:34:27;91233.25;;;35.41;31.40
5952;BME280;3001;42.622;23.194;2022-08-19T12:36:55;91234.56;;;35.54;34.76
5952;BME280;3001;42.622;23.194;2022-08-19T12:39:22;91239.97;;;35.63;33.79
5952;BME280;3001;42.622;23.194;2022-08-19T12:41:50;91230.03;;;35.60;34.50
5952;BME280;3001;42.622;23.194;2022-08-19T12:44:17;91226.81;;;35.89;34.36
5952;BME280;3001;42.622;23.194;2022-08-19T12:46:44;91228.00;;;35.88;31.37
5952;BME280;3001;42.622;23.194;2022-08-19T12:49:12;91224.38;;;35.91;32.61
5952;BME280;3001;42.622;23.194;2022-08-19T12:51:39;91227.78;;;36.00;30.26
5952;BME280;3001;42.622;23.194;2022-08-19T12:54:05;91215.63;;;35.96;33.80
5952;BME280;3001;42.622;23.194;2022-08-19T12:56:32;91209.88;;;36.03;31.59
5952;BME280;3001;42.622;23.194;2022-08-19T12:59:01;91211.81;;;36.11;31.12
5952;BME280;3001;42.622;23.194;2022-08-19T13:01:28;91188.16;;;35.97;32.32
5952;BME280;3001;42.622;23.194;2022-08-19T13:03:58;91209.28;;;36.08;29.70
5952;BME280;3001;42.622;23.194;2022-08-19T13:06:26;91212.50;;;36.21;33.77
5952;BME280;3001;42.622;23.194;2022-08-19T13:08:54;91217.19;;;36.20;32.43
5952;BME280;3001;42.622;23.194;2022-08-19T13:11:21;91219.25;;;36.25;30.12
5952;BME280;3001;42.622;23.194;2022-08-19T13:13:51;91199.97;;;36.09;30.51
5952;BME280;3001;42.622;23.194;2022-08-19T13:16:21;91203.69;;;36.11;29.88
5952;BME280;3001;42.622;23.194;2022-08-19T13:18:48;91192.91;;;36.02;31.54
5952;BME280;3001;42.622;23.194;2022-08-19T13:21:17;91176.00;;;35.93;32.10